sensor_id;sensor_type;location;lat;lon;timestamp;temperature;humidity
4962;DHT22;2496;52.468;13.342;2023-03-23T00:01:49;12.40;99.90
4962;DHT22;2496;52.468;13.342;2023-03-23T00:04:18;12.40;99.90
4962;DHT22;2496;52.468;13.342;2023-03-23T00:06:45;12.40;99.90
4962;DHT22;2496;52.468;13.342;2023-03-23T00:09:12;12.40;99.90
4962;DHT22;2496;52.468;13.342;2023-03-23T00:11:41;12.30;99.90
4962;DHT22;2496;52.468;13.342;2023-03-23T00:14:09;12.30;99.90
4962;DHT22;2496;52.468;13.342;2023-03-23T00:16:39;12.30;99.90
4962;DHT22;2496;52.468;13.342;2023-03-23T00:19:10;12.30;99.90
4962;DHT22;2496;52.468;13.342;2023-03-23T00:21:41;12.30;99.90
4962;DHT22;2496;52.468;13.342;2023-03-23T00:24:13;12.30;99.90
4962;DHT22;2496;52.468;13.342;2023-03-23T00:26:43;12.20;99.90
4962;DHT22;2496;52.468;13.342;2023-03-23T00:29:13;12.20;99.90
4962;DHT22;2496;52.468;13.342;2023-03-23T00:31:40;12.20;99.90
4962;DHT22;2496;52.468;13.342;2023-03-23T00:34:13;12.20;99.90
4962;DHT22;2496;52.468;13.342;2023-03-23T00:36:46;12.20;99.90
4962;DHT22;2496;52.468;13.342;2023-03-23T00:39:14;12.20;99.90
4962;DHT22;2496;52.468;13.342;2023-03-23T00:41:43;12.10;99.90
4962;DHT22;2496;52.468;13.342;2023-03-23T00:44:10;12.10;99.90
4962;DHT22;2496;52.468;13.342;2023-03-23T00:46:44;12.10;99.90
4962;DHT22;2496;52.468;13.342;2023-03-23T00:49:12;12.10;99.90
4962;DHT22;2496;52.468;13.342;2023-03-23T00:51:40;12.00;99.90
4962;DHT22;2496;52.468;13.342;2023-03-23T00:54:09;12.00;99.90
4962;DHT22;2496;52.468;13.342;2023-03-23T00:56:36;12.00;99.90
4962;DHT22;2496;52.468;13.342;2023-03-23T00:59:04;12.00;99.90
4962;DHT22;2496;52.468;13.342;2023-03-23T01:01:32;12.00;99.90
4962;DHT22;2496;52.468;13.342;2023-03-23T01:03:59;12.00;99.90
4962;DHT22;2496;52.468;13.342;2023-03-23T01:06:31;12.00;99.90
4962;DHT22;2496;52.468;13.342;2023-03-23T01:09:01;11.90;99.90
4962;DHT22;2496;52.468;13.342;2023-03-23T01:11:30;11.90;99.90
4962;DHT22;2496;52.468;13.342;2023-03-23T01:13:57;11.90;99.90
4962;DHT22;2496;52.468;13.342;2023-03-23T01:16:24;11.90;99.90
4962;DHT22;2496;52.468;13.342;2023-03-23T01:18:51;11.80;99.90
4962;DHT22;2496;52.468;13.342;2023-03-23T01:21:19;11.80;99.90
4962;DHT22;2496;52.468;13.342;2023-03-23T01:23:47;11.80;99.90
4962;DHT22;2496;52.468;13.342;2023-03-23T01:26:17;11.80;99.90
4962;DHT22;2496;52.468;13.342;2023-03-23T01:28:46;11.70;99.90
4962;DHT22;2496;52.468;13.342;2023-03-23T01:31:15;11.70;99.90
4962;DHT22;2496;52.468;13.342;2023-03-23T01:33:43;11.70;99.90
4962;DHT22;2496;52.468;13.342;2023-03-23T01:36:11;11.70;99.90
4962;DHT22;2496;52.468;13.342;2023-03-23T01:38:39;11.70;99.90
4962;DHT22;2496;52.468;13.342;2023-03-23T01:41:06;11.70;99.90
4962;DHT22;2496;52.468;13.342;2023-03-23T01:43:33;11.60;99.90
4962;DHT22;2496;52.468;13.342;2023-03-23T01:46:01;11.60;99.90
4962;DHT22;2496;52.468;13.342;2023-03-23T01:48:30;11.60;99.90
4962;DHT22;2496;52.468;13.342;2023-03-23T01:51:02;11.60;99.90
4962;DHT22;2496;52.468;13.342;2023-03-23T01:53:33;11.60;99.90
4962;DHT22;2496;52.468;13.342;2023-03-23T01:56:01;11.60;99.90
4962;DHT22;2496;52.468;13.342;2023-03-23T01:58:31;11.60;99.90
4962;DHT22;2496;52.468;13.342;2023-03-23T02:01:03;11.60;99.90
4962;DHT22;2496;52.468;13.342;2023-03-23T02:03:32;11.60;99.90
4962;DHT22;2496;52.468;13.342;2023-03-23T02:06:01;11.60;99.90
4962;DHT22;2496;52.468;13.342;2023-03-23T02:08:31;11.60;99.90
4962;DHT22;2496;52.468;13.342;2023-03-23T02:10:59;11.60;99.90
4962;DHT22;2496;52.468;13.342;2023-03-23T02:13:27;11.60;99.90
4962;DHT22;2496;52.468;13.342;2023-03-23T02:16:01;11.60;99.90
4962;DHT22;2496;52.468;13.342;2023-03-23T02:18:40;11.60;99.90
4962;DHT22;2496;52.468;13.342;2023-03-23T02:21:34;11.60;99.90
4962;DHT22;2496;52.468;13.342;2023-03-23T02:24:24;11.60;99.90
4962;DHT22;2496;52.468;13.342;2023-03-23T02:26:58;11.60;99.90
4962;DHT22;2496;52.468;13.342;2023-03-23T02:35:19;11.70;99.90
4962;DHT22;2496;52.468;13.342;2023-03-23T02:37:51;11.70;99.90
4962;DHT22;2496;52.468;13.342;2023-03-23T02:40:22;11.70;99.90
4962;DHT22;2496;52.468;13.342;2023-03-23T02:42:54;11.70;99.90
4962;DHT22;2496;52.468;13.342;2023-03-23T02:45:24;11.70;99.90
4962;DHT22;2496;52.468;13.342;2023-03-23T02:47:55;11.70;99.90
4962;DHT22;2496;52.468;13.342;2023-03-23T02:50:25;11.70;99.90
4962;DHT22;2496;52.468;13.342;2023-03-23T02:52:54;11.80;99.90
4962;DHT22;2496;52.468;13.342;2023-03-23T02:55:22;11.80;99.90
4962;DHT22;2496;52.468;13.342;2023-03-23T02:57:52;11.80;99.90
4962;DHT22;2496;52.468;13.342;2023-03-23T03:00:19;11.80;99.90
4962;DHT22;2496;52.468;13.342;2023-03-23T03:02:49;11.80;99.90
4962;DHT22;2496;52.468;13.342;2023-03-23T03:05:25;11.80;99.90
4962;DHT22;2496;52.468;13.342;2023-03-23T03:08:14;11.80;99.90
4962;DHT22;2496;52.468;13.342;2023-03-23T03:10:48;11.80;99.90
4962;DHT22;2496;52.468;13.342;2023-03-23T03:13:22;11.80;99.90
4962;DHT22;2496;52.468;13.342;2023-03-23T03:15:55;11.80;99.90
4962;DHT22;2496;52.468;13.342;2023-03-23T03:18:27;11.80;99.90
4962;DHT22;2496;52.468;13.342;2023-03-23T03:20:59;11.80;99.90
4962;DHT22;2496;52.468;13.342;2023-03-23T03:23:28;11.80;99.90
4962;DHT22;2496;52.468;13.342;2023-03-23T03:25:57;11.80;99.90
4962;DHT22;2496;52.468;13.342;2023-03-23T03:28:25;11.80;99.90
4962;DHT22;2496;52.468;13.342;2023-03-23T03:30:56;11.80;99.90
4962;DHT22;2496;52.468;13.342;2023-03-23T03:33:27;11.80;99.90
4962;DHT22;2496;52.468;13.342;2023-03-23T03:36:00;11.90;99.90
4962;DHT22;2496;52.468;13.342;2023-03-23T03:38:28;11.90;99.90
4962;DHT22;2496;52.468;13.342;2023-03-23T03:40:55;11.80;99.90
4962;DHT22;2496;52.468;13.342;2023-03-23T03:43:23;11.90;99.90
4962;DHT22;2496;52.468;13.342;2023-03-23T03:45:50;11.90;99.90
4962;DHT22;2496;52.468;13.342;2023-03-23T03:48:17;11.90;99.90
4962;DHT22;2496;52.468;13.342;2023-03-23T03:50:44;11.90;99.90
4962;DHT22;2496;52.468;13.342;2023-03-23T03:53:14;11.90;99.90
4962;DHT22;2496;52.468;13.342;2023-03-23T03:55:41;11.90;99.90
4962;DHT22;2496;52.468;13.342;2023-03-23T03:58:11;11.90;99.90
4962;DHT22;2496;52.468;13.342;2023-03-23T04:00:38;11.90;99.90
4962;DHT22;2496;52.468;13.342;2023-03-23T04:03:07;11.90;99.90
4962;DHT22;2496;52.468;13.342;2023-03-23T04:05:34;11.90;99.90
4962;DHT22;2496;52.468;13.342;2023-03-23T04:08:03;11.90;99.90
4962;DHT22;2496;52.468;13.342;2023-03-23T04:10:32;11.90;99.90
4962;DHT22;2496;52.468;13.342;2023-03-23T04:12:59;11.90;99.90
4962;DHT22;2496;52.468;13.342;2023-03-23T04:15:26;11.90;99.90
4962;DHT22;2496;52.468;13.342;2023-03-23T04:17:53;11.90;99.90
4962;DHT22;2496;52.468;13.342;2023-03-23T04:20:22;11.90;99.90
4962;DHT22;2496;52.468;13.342;2023-03-23T04:22:51;11.90;99.90
4962;DHT22;2496;52.468;13.342;2023-03-23T04:25:21;11.90;99.90
4962;DHT22;2496;52.468;13.342;2023-03-23T04:27:50;12.00;99.90
4962;DHT22;2496;52.468;13.342;2023-03-23T04:30:19;12.00;99.90
4962;DHT22;2496;52.468;13.342;2023-03-23T04:32:48;12.00;99.90
4962;DHT22;2496;52.468;13.342;2023-03-23T04:35:19;11.90;99.90
4962;DHT22;2496;52.468;13.342;2023-03-23T04:37:46;11.90;99.90
4962;DHT22;2496;52.468;13.342;2023-03-23T04:40:15;11.90;99.90
4962;DHT22;2496;52.468;13.342;2023-03-23T04:42:43;12.00;99.90
4962;DHT22;2496;52.468;13.342;2023-03-23T04:45:15;12.00;99.90
4962;DHT22;2496;52.468;13.342;2023-03-23T04:47:48;12.00;99.90
4962;DHT22;2496;52.468;13.342;2023-03-23T04:50:20;12.00;99.90
4962;DHT22;2496;52.468;13.342;2023-03-23T04:52:50;12.00;99.90
4962;DHT22;2496;52.468;13.342;2023-03-23T04:55:18;11.90;99.90
4962;DHT22;2496;52.468;13.342;2023-03-23T04:57:46;11.90;99.90
4962;DHT22;2496;52.468;13.342;2023-03-23T05:00:16;11.90;99.90
4962;DHT22;2496;52.468;13.342;2023-03-23T05:02:44;11.90;99.90
4962;DHT22;2496;52.468;13.342;2023-03-23T05:05:13;11.90;99.90
4962;DHT22;2496;52.468;13.342;2023-03-23T05:07:41;11.90;99.90
4962;DHT22;2496;52.468;13.342;2023-03-23T05:10:10;11.90;99.90
4962;DHT22;2496;52.468;13.342;2023-03-23T05:12:37;11.90;99.90
4962;DHT22;2496;52.468;13.342;2023-03-23T05:15:06;11.90;99.90
4962;DHT22;2496;52.468;13.342;2023-03-23T05:17:35;11.90;99.90
4962;DHT22;2496;52.468;13.342;2023-03-23T05:20:05;11.90;99.90
4962;DHT22;2496;52.468;13.342;2023-03-23T05:22:36;11.80;99.90
4962;DHT22;2496;52.468;13.342;2023-03-23T05:25:04;11.80;99.90
4962;DHT22;2496;52.468;13.342;2023-03-23T05:27:34;11.80;99.90
4962;DHT22;2496;52.468;13.342;2023-03-23T05:30:02;11.70;99.90
4962;DHT22;2496;52.468;13.342;2023-03-23T05:32:29;11.70;99.90
4962;DHT22;2496;52.468;13.342;2023-03-23T05:34:59;11.70;99.90
4962;DHT22;2496;52.468;13.342;2023-03-23T05:37:27;11.70;99.90
4962;DHT22;2496;52.468;13.342;2023-03-23T05:39:58;11.60;99.90
4962;DHT22;2496;52.468;13.342;2023-03-23T05:42:27;11.60;99.90
4962;DHT22;2496;52.468;13.342;2023-03-23T05:44:54;11.50;99.90
4962;DHT22;2496;52.468;13.342;2023-03-23T05:47:21;11.50;99.90
4962;DHT22;2496;52.468;13.342;2023-03-23T05:49:48;11.50;99.90
4962;DHT22;2496;52.468;13.342;2023-03-23T05:52:16;11.40;99.90
4962;DHT22;2496;52.468;13.342;2023-03-23T05:54:43;11.40;99.90
4962;DHT22;2496;52.468;13.342;2023-03-23T05:57:11;11.40;99.90
4962;DHT22;2496;52.468;13.342;2023-03-23T05:59:38;11.30;99.90
4962;DHT22;2496;52.468;13.342;2023-03-23T06:02:05;11.30;99.90
4962;DHT22;2496;52.468;13.342;2023-03-23T06:04:32;11.30;99.90
4962;DHT22;2496;52.468;13.342;2023-03-23T06:06:59;11.30;99.90
4962;DHT22;2496;52.468;13.342;2023-03-23T06:09:29;11.30;99.90
4962;DHT22;2496;52.468;13.342;2023-03-23T06:11:56;11.20;99.90
4962;DHT22;2496;52.468;13.342;2023-03-23T06:14:23;11.20;99.90
4962;DHT22;2496;52.468;13.342;2023-03-23T06:16:50;11.20;99.90
4962;DHT22;2496;52.468;13.342;2023-03-23T06:19:17;11.20;99.90
4962;DHT22;2496;52.468;13.342;2023-03-23T06:21:44;11.10;99.90
4962;DHT22;2496;52.468;13.342;2023-03-23T06:24:11;11.10;99.90
4962;DHT22;2496;52.468;13.342;2023-03-23T06:26:39;11.10;99.90
4962;DHT22;2496;52.468;13.342;2023-03-23T06:29:10;11.00;99.90
4962;DHT22;2496;52.468;13.342;2023-03-23T06:31:38;11.00;99.90
4962;DHT22;2496;52.468;13.342;2023-03-23T06:34:06;11.00;99.90
4962;DHT22;2496;52.468;13.342;2023-03-23T06:36:34;11.00;99.90
4962;DHT22;2496;52.468;13.342;2023-03-23T06:39:01;11.00;99.90
4962;DHT22;2496;52.468;13.342;2023-03-23T06:41:30;11.10;99.90
4962;DHT22;2496;52.468;13.342;2023-03-23T06:43:58;11.10;99.90
4962;DHT22;2496;52.468;13.342;2023-03-23T06:46:26;11.10;99.90
4962;DHT22;2496;52.468;13.342;2023-03-23T06:48:53;11.10;99.90
4962;DHT22;2496;52.468;13.342;2023-03-23T06:51:20;11.10;99.90
4962;DHT22;2496;52.468;13.342;2023-03-23T06:53:47;11.10;99.90
4962;DHT22;2496;52.468;13.342;2023-03-23T06:56:15;11.10;99.90
4962;DHT22;2496;52.468;13.342;2023-03-23T06:58:42;11.10;99.90
4962;DHT22;2496;52.468;13.342;2023-03-23T07:01:12;11.10;99.90
4962;DHT22;2496;52.468;13.342;2023-03-23T07:03:40;11.20;99.90
4962;DHT22;2496;52.468;13.342;2023-03-23T07:06:09;11.20;99.90
4962;DHT22;2496;52.468;13.342;2023-03-23T07:08:36;11.20;99.90
4962;DHT22;2496;52.468;13.342;2023-03-23T07:11:04;11.20;99.90
4962;DHT22;2496;52.468;13.342;2023-03-23T07:13:31;11.20;99.90
4962;DHT22;2496;52.468;13.342;2023-03-23T07:15:58;11.20;99.90
4962;DHT22;2496;52.468;13.342;2023-03-23T07:18:27;11.20;99.90
4962;DHT22;2496;52.468;13.342;2023-03-23T07:20:54;11.20;99.90
4962;DHT22;2496;52.468;13.342;2023-03-23T07:23:21;11.30;99.90
4962;DHT22;2496;52.468;13.342;2023-03-23T07:25:48;11.30;99.90
4962;DHT22;2496;52.468;13.342;2023-03-23T07:28:15;11.30;99.90
4962;DHT22;2496;52.468;13.342;2023-03-23T07:30:42;11.20;99.90
4962;DHT22;2496;52.468;13.342;2023-03-23T07:33:10;11.20;99.90
4962;DHT22;2496;52.468;13.342;2023-03-23T07:35:39;11.20;99.90
4962;DHT22;2496;52.468;13.342;2023-03-23T07:38:06;11.30;99.90
4962;DHT22;2496;52.468;13.342;2023-03-23T07:40:34;11.20;99.90
4962;DHT22;2496;52.468;13.342;2023-03-23T07:43:03;11.30;99.90
4962;DHT22;2496;52.468;13.342;2023-03-23T07:45:30;11.30;99.90
4962;DHT22;2496;52.468;13.342;2023-03-23T07:47:58;11.30;99.90
4962;DHT22;2496;52.468;13.342;2023-03-23T07:50:25;11.30;99.90
4962;DHT22;2496;52.468;13.342;2023-03-23T07:52:55;11.30;99.90
4962;DHT22;2496;52.468;13.342;2023-03-23T07:55:23;11.30;99.90
4962;DHT22;2496;52.468;13.342;2023-03-23T07:57:52;11.40;99.90
4962;DHT22;2496;52.468;13.342;2023-03-23T08:00:20;11.40;99.90
4962;DHT22;2496;52.468;13.342;2023-03-23T08:02:50;11.40;99.90
4962;DHT22;2496;52.468;13.342;2023-03-23T08:05:18;11.50;99.90
4962;DHT22;2496;52.468;13.342;2023-03-23T08:07:46;11.50;99.90
4962;DHT22;2496;52.468;13.342;2023-03-23T08:10:17;11.50;99.90
4962;DHT22;2496;52.468;13.342;2023-03-23T08:12:45;11.60;99.90
4962;DHT22;2496;52.468;13.342;2023-03-23T08:15:13;11.60;99.90
4962;DHT22;2496;52.468;13.342;2023-03-23T08:17:40;11.60;99.90
4962;DHT22;2496;52.468;13.342;2023-03-23T08:20:09;11.60;99.90
4962;DHT22;2496;52.468;13.342;2023-03-23T08:22:39;11.60;99.90
4962;DHT22;2496;52.468;13.342;2023-03-23T08:25:09;11.60;99.90
4962;DHT22;2496;52.468;13.342;2023-03-23T08:27:38;11.60;99.90
4962;DHT22;2496;52.468;13.342;2023-03-23T08:30:09;11.60;99.90
4962;DHT22;2496;52.468;13.342;2023-03-23T08:32:37;11.60;99.90
4962;DHT22;2496;52.468;13.342;2023-03-23T08:35:05;11.60;99.90
4962;DHT22;2496;52.468;13.342;2023-03-23T08:37:34;11.70;99.90
4962;DHT22;2496;52.468;13.342;2023-03-23T08:40:02;11.70;99.90
4962;DHT22;2496;52.468;13.342;2023-03-23T08:42:34;11.70;99.90
4962;DHT22;2496;52.468;13.342;2023-03-23T08:45:03;11.70;99.90
4962;DHT22;2496;52.468;13.342;2023-03-23T08:47:31;11.70;99.90
4962;DHT22;2496;52.468;13.342;2023-03-23T08:50:00;11.70;99.90
4962;DHT22;2496;52.468;13.342;2023-03-23T08:52:28;11.70;99.90
4962;DHT22;2496;52.468;13.342;2023-03-23T08:54:55;11.70;99.90
4962;DHT22;2496;52.468;13.342;2023-03-23T08:57:22;11.80;99.90
4962;DHT22;2496;52.468;13.342;2023-03-23T08:59:49;11.80;99.90
4962;DHT22;2496;52.468;13.342;2023-03-23T09:02:18;11.90;99.90
4962;DHT22;2496;52.468;13.342;2023-03-23T09:04:45;11.90;99.90
4962;DHT22;2496;52.468;13.342;2023-03-23T09:07:12;12.00;99.90
4962;DHT22;2496;52.468;13.342;2023-03-23T09:09:40;12.10;99.90
4962;DHT22;2496;52.468;13.342;2023-03-23T09:12:08;12.20;99.90
4962;DHT22;2496;52.468;13.342;2023-03-23T09:14:36;12.20;99.90
4962;DHT22;2496;52.468;13.342;2023-03-23T09:17:03;12.30;99.90
4962;DHT22;2496;52.468;13.342;2023-03-23T09:19:33;12.20;99.90
4962;DHT22;2496;52.468;13.342;2023-03-23T09:22:00;12.20;99.90
4962;DHT22;2496;52.468;13.342;2023-03-23T09:24:28;12.20;99.90
4962;DHT22;2496;52.468;13.342;2023-03-23T09:26:55;12.30;99.90
4962;DHT22;2496;52.468;13.342;2023-03-23T09:29:24;12.30;99.90
4962;DHT22;2496;52.468;13.342;2023-03-23T09:31:52;12.30;99.90
4962;DHT22;2496;52.468;13.342;2023-03-23T09:34:19;12.40;99.90
4962;DHT22;2496;52.468;13.342;2023-03-23T09:36:48;12.40;99.90
4962;DHT22;2496;52.468;13.342;2023-03-23T09:39:15;12.50;99.90
4962;DHT22;2496;52.468;13.342;2023-03-23T09:42:00;12.60;99.90
4962;DHT22;2496;52.468;13.342;2023-03-23T09:44:36;12.60;99.90
4962;DHT22;2496;52.468;13.342;2023-03-23T09:47:19;12.80;99.90
4962;DHT22;2496;52.468;13.342;2023-03-23T09:49:52;12.90;99.90
4962;DHT22;2496;52.468;13.342;2023-03-23T09:52:22;13.00;99.90
4962;DHT22;2496;52.468;13.342;2023-03-23T09:54:51;13.10;99.90
4962;DHT22;2496;52.468;13.342;2023-03-23T09:57:30;13.10;99.90
4962;DHT22;2496;52.468;13.342;2023-03-23T10:00:02;13.20;99.90
4962;DHT22;2496;52.468;13.342;2023-03-23T10:02:36;13.20;99.90
4962;DHT22;2496;52.468;13.342;2023-03-23T10:05:25;13.30;99.90
4962;DHT22;2496;52.468;13.342;2023-03-23T10:07:55;13.30;99.90
4962;DHT22;2496;52.468;13.342;2023-03-23T10:10:24;13.40;99.90
4962;DHT22;2496;52.468;13.342;2023-03-23T10:12:58;13.40;99.90
4962;DHT22;2496;52.468;13.342;2023-03-23T10:15:33;13.40;99.90
4962;DHT22;2496;52.468;13.342;2023-03-23T10:18:02;13.40;99.90
4962;DHT22;2496;52.468;13.342;2023-03-23T10:20:36;13.40;99.90
4962;DHT22;2496;52.468;13.342;2023-03-23T10:23:13;13.40;99.90
4962;DHT22;2496;52.468;13.342;2023-03-23T10:25:43;13.40;99.90
4962;DHT22;2496;52.468;13.342;2023-03-23T10:28:13;13.40;99.90
4962;DHT22;2496;52.468;13.342;2023-03-23T10:30:46;13.50;99.90
4962;DHT22;2496;52.468;13.342;2023-03-23T10:33:18;13.50;99.90
4962;DHT22;2496;52.468;13.342;2023-03-23T10:35:48;13.60;99.90
4962;DHT22;2496;52.468;13.342;2023-03-23T10:38:21;13.60;99.90
4962;DHT22;2496;52.468;13.342;2023-03-23T10:40:54;13.70;99.90
4962;DHT22;2496;52.468;13.342;2023-03-23T10:43:23;13.70;99.90
4962;DHT22;2496;52.468;13.342;2023-03-23T10:46:01;13.80;99.90
4962;DHT22;2496;52.468;13.342;2023-03-23T10:48:30;13.90;99.90
4962;DHT22;2496;52.468;13.342;2023-03-23T10:51:00;13.90;99.90
4962;DHT22;2496;52.468;13.342;2023-03-23T10:53:33;13.90;99.90
4962;DHT22;2496;52.468;13.342;2023-03-23T10:56:02;13.90;99.90
4962;DHT22;2496;52.468;13.342;2023-03-23T10:58:31;13.90;99.90
4962;DHT22;2496;52.468;13.342;2023-03-23T11:00:59;13.90;99.90
4962;DHT22;2496;52.468;13.342;2023-03-23T11:03:38;13.90;99.90
4962;DHT22;2496;52.468;13.342;2023-03-23T11:06:07;13.90;99.90
4962;DHT22;2496;52.468;13.342;2023-03-23T11:08:58;13.90;99.90
4962;DHT22;2496;52.468;13.342;2023-03-23T11:11:28;13.90;99.90
4962;DHT22;2496;52.468;13.342;2023-03-23T11:14:00;13.90;99.90
4962;DHT22;2496;52.468;13.342;2023-03-23T11:16:29;13.90;99.90
4962;DHT22;2496;52.468;13.342;2023-03-23T11:18:58;13.90;99.90
4962;DHT22;2496;52.468;13.342;2023-03-23T11:21:26;14.00;99.90
4962;DHT22;2496;52.468;13.342;2023-03-23T11:23:57;14.00;99.90
4962;DHT22;2496;52.468;13.342;2023-03-23T11:26:27;14.00;99.90
4962;DHT22;2496;52.468;13.342;2023-03-23T11:28:57;14.00;99.90
4962;DHT22;2496;52.468;13.342;2023-03-23T11:31:30;14.10;99.90
4962;DHT22;2496;52.468;13.342;2023-03-23T11:33:59;14.10;99.90
4962;DHT22;2496;52.468;13.342;2023-03-23T11:36:35;14.10;99.90
4962;DHT22;2496;52.468;13.342;2023-03-23T11:39:20;14.10;99.90
4962;DHT22;2496;52.468;13.342;2023-03-23T11:41:47;14.20;99.90
4962;DHT22;2496;52.468;13.342;2023-03-23T11:44:15;14.20;99.90
4962;DHT22;2496;52.468;13.342;2023-03-23T11:46:53;14.30;99.90
4962;DHT22;2496;52.468;13.342;2023-03-23T11:49:35;14.30;99.90
4962;DHT22;2496;52.468;13.342;2023-03-23T11:52:11;14.40;99.90
4962;DHT22;2496;52.468;13.342;2023-03-23T11:54:46;14.40;99.90
4962;DHT22;2496;52.468;13.342;2023-03-23T11:57:14;14.50;99.90
4962;DHT22;2496;52.468;13.342;2023-03-23T11:59:42;14.50;99.90
4962;DHT22;2496;52.468;13.342;2023-03-23T12:05:32;14.60;99.90
4962;DHT22;2496;52.468;13.342;2023-03-23T12:08:23;14.60;99.90
4962;DHT22;2496;52.468;13.342;2023-03-23T12:11:01;14.70;99.90
4962;DHT22;2496;52.468;13.342;2023-03-23T12:13:42;14.70;99.90
4962;DHT22;2496;52.468;13.342;2023-03-23T12:16:23;14.70;99.90
4962;DHT22;2496;52.468;13.342;2023-03-23T12:18:58;14.70;99.90
4962;DHT22;2496;52.468;13.342;2023-03-23T12:21:34;14.70;99.90
4962;DHT22;2496;52.468;13.342;2023-03-23T12:24:11;14.80;99.90
4962;DHT22;2496;52.468;13.342;2023-03-23T12:26:45;14.80;99.90
4962;DHT22;2496;52.468;13.342;2023-03-23T12:29:39;14.80;99.90
4962;DHT22;2496;52.468;13.342;2023-03-23T12:32:35;14.80;99.90
4962;DHT22;2496;52.468;13.342;2023-03-23T12:35:19;14.80;99.90
4962;DHT22;2496;52.468;13.342;2023-03-23T12:37:56;14.80;99.90
4962;DHT22;2496;52.468;13.342;2023-03-23T12:40:49;14.90;99.90
4962;DHT22;2496;52.468;13.342;2023-03-23T12:43:26;14.90;99.90
4962;DHT22;2496;52.468;13.342;2023-03-23T12:46:07;14.90;99.90
4962;DHT22;2496;52.468;13.342;2023-03-23T12:48:40;14.90;99.90
4962;DHT22;2496;52.468;13.342;2023-03-23T12:51:15;14.90;99.90
4962;DHT22;2496;52.468;13.342;2023-03-23T12:53:52;14.90;99.90
4962;DHT22;2496;52.468;13.342;2023-03-23T12:56:24;14.90;99.90
4962;DHT22;2496;52.468;13.342;2023-03-23T12:58:58;15.00;99.90
4962;DHT22;2496;52.468;13.342;2023-03-23T13:01:29;15.00;99.90
4962;DHT22;2496;52.468;13.342;2023-03-23T13:03:59;15.00;99.90
4962;DHT22;2496;52.468;13.342;2023-03-23T13:06:32;15.10;99.90
4962;DHT22;2496;52.468;13.342;2023-03-23T13:09:03;15.20;99.90
4962;DHT22;2496;52.468;13.342;2023-03-23T13:11:35;15.30;99.90
4962;DHT22;2496;52.468;13.342;2023-03-23T13:14:12;15.40;99.90
4962;DHT22;2496;52.468;13.342;2023-03-23T13:16:46;15.40;99.90
4962;DHT22;2496;52.468;13.342;2023-03-23T13:19:24;15.50;99.90
4962;DHT22;2496;52.468;13.342;2023-03-23T13:21:58;15.50;99.90
4962;DHT22;2496;52.468;13.342;2023-03-23T13:24:30;15.60;99.90
4962;DHT22;2496;52.468;13.342;2023-03-23T13:26:59;15.60;99.90
4962;DHT22;2496;52.468;13.342;2023-03-23T13:29:28;15.60;99.90
4962;DHT22;2496;52.468;13.342;2023-03-23T13:32:06;15.50;99.90
4962;DHT22;2496;52.468;13.342;2023-03-23T13:34:35;15.60;99.90
4962;DHT22;2496;52.468;13.342;2023-03-23T13:37:05;15.50;99.90
4962;DHT22;2496;52.468;13.342;2023-03-23T13:39:35;15.60;99.90
4962;DHT22;2496;52.468;13.342;2023-03-23T13:42:05;15.70;99.90
4962;DHT22;2496;52.468;13.342;2023-03-23T13:44:57;15.70;99.90
4962;DHT22;2496;52.468;13.342;2023-03-23T13:47:37;15.80;99.90
4962;DHT22;2496;52.468;13.342;2023-03-23T13:50:12;15.80;99.90
4962;DHT22;2496;52.468;13.342;2023-03-23T13:52:49;15.80;99.90
4962;DHT22;2496;52.468;13.342;2023-03-23T13:55:21;15.80;99.90
4962;DHT22;2496;52.468;13.342;2023-03-23T13:57:50;15.80;99.90
4962;DHT22;2496;52.468;13.342;2023-03-23T14:00:45;15.80;99.90
4962;DHT22;2496;52.468;13.342;2023-03-23T14:03:16;15.70;99.90
4962;DHT22;2496;52.468;13.342;2023-03-23T14:05:45;15.80;99.90
4962;DHT22;2496;52.468;13.342;2023-03-23T14:08:22;15.90;99.90
4962;DHT22;2496;52.468;13.342;2023-03-23T14:10:52;16.00;99.90
4962;DHT22;2496;52.468;13.342;2023-03-23T14:13:25;16.10;99.90
4962;DHT22;2496;52.468;13.342;2023-03-23T14:15:59;16.10;99.90
4962;DHT22;2496;52.468;13.342;2023-03-23T14:18:31;16.00;99.90
4962;DHT22;2496;52.468;13.342;2023-03-23T14:20:59;16.00;99.90
4962;DHT22;2496;52.468;13.342;2023-03-23T14:23:26;15.90;99.90
4962;DHT22;2496;52.468;13.342;2023-03-23T14:25:59;16.00;99.90
4962;DHT22;2496;52.468;13.342;2023-03-23T14:28:36;15.90;99.90
4962;DHT22;2496;52.468;13.342;2023-03-23T14:31:08;15.90;99.90
4962;DHT22;2496;52.468;13.342;2023-03-23T14:33:40;15.80;99.90
4962;DHT22;2496;52.468;13.342;2023-03-23T14:36:08;15.70;99.90
4962;DHT22;2496;52.468;13.342;2023-03-23T14:38:35;15.70;99.90
4962;DHT22;2496;52.468;13.342;2023-03-23T14:41:05;15.60;99.90
4962;DHT22;2496;52.468;13.342;2023-03-23T14:43:33;15.50;99.90
4962;DHT22;2496;52.468;13.342;2023-03-23T14:46:05;15.50;99.90
4962;DHT22;2496;52.468;13.342;2023-03-23T14:48:34;15.40;99.90
4962;DHT22;2496;52.468;13.342;2023-03-23T14:51:04;15.40;99.90
4962;DHT22;2496;52.468;13.342;2023-03-23T14:53:35;15.30;99.90
4962;DHT22;2496;52.468;13.342;2023-03-23T14:56:09;15.30;99.90
4962;DHT22;2496;52.468;13.342;2023-03-23T14:58:38;15.30;99.90
4962;DHT22;2496;52.468;13.342;2023-03-23T15:01:07;15.20;99.90
4962;DHT22;2496;52.468;13.342;2023-03-23T15:03:38;15.30;99.90
4962;DHT22;2496;52.468;13.342;2023-03-23T15:06:11;15.30;99.90
4962;DHT22;2496;52.468;13.342;2023-03-23T15:08:39;15.40;99.90
4962;DHT22;2496;52.468;13.342;2023-03-23T15:11:11;15.40;99.90
4962;DHT22;2496;52.468;13.342;2023-03-23T15:13:45;15.40;99.90
4962;DHT22;2496;52.468;13.342;2023-03-23T15:16:18;15.40;99.90
4962;DHT22;2496;52.468;13.342;2023-03-23T15:18:50;15.40;99.90
4962;DHT22;2496;52.468;13.342;2023-03-23T15:21:26;15.50;99.90
4962;DHT22;2496;52.468;13.342;2023-03-23T15:23:57;15.50;99.90
4962;DHT22;2496;52.468;13.342;2023-03-23T15:26:30;15.60;99.90
4962;DHT22;2496;52.468;13.342;2023-03-23T15:29:03;15.60;99.90
4962;DHT22;2496;52.468;13.342;2023-03-23T15:31:30;15.60;99.90
4962;DHT22;2496;52.468;13.342;2023-03-23T15:34:03;15.60;99.90
4962;DHT22;2496;52.468;13.342;2023-03-23T15:36:34;15.60;99.90
4962;DHT22;2496;52.468;13.342;2023-03-23T15:39:03;15.60;99.90
4962;DHT22;2496;52.468;13.342;2023-03-23T15:41:31;15.70;99.90
4962;DHT22;2496;52.468;13.342;2023-03-23T15:44:11;15.60;99.90
4962;DHT22;2496;52.468;13.342;2023-03-23T15:46:48;15.60;99.90
4962;DHT22;2496;52.468;13.342;2023-03-23T15:49:20;15.60;99.90
4962;DHT22;2496;52.468;13.342;2023-03-23T15:51:48;15.60;99.90
4962;DHT22;2496;52.468;13.342;2023-03-23T15:54:16;15.60;99.90
4962;DHT22;2496;52.468;13.342;2023-03-23T15:56:43;15.60;99.90
4962;DHT22;2496;52.468;13.342;2023-03-23T15:59:11;15.60;99.90
4962;DHT22;2496;52.468;13.342;2023-03-23T16:01:41;15.60;99.90
4962;DHT22;2496;52.468;13.342;2023-03-23T16:04:12;15.60;99.90
4962;DHT22;2496;52.468;13.342;2023-03-23T16:06:41;15.60;99.90
4962;DHT22;2496;52.468;13.342;2023-03-23T16:09:13;15.50;99.90
4962;DHT22;2496;52.468;13.342;2023-03-23T16:11:40;15.50;99.90
4962;DHT22;2496;52.468;13.342;2023-03-23T16:14:08;15.50;99.90
4962;DHT22;2496;52.468;13.342;2023-03-23T16:16:37;15.50;99.90